sensor_id;sensor_type;location;lat;lon;timestamp;pressure;altitude;pressure_sealevel;temperature;humidity
61086;BME280;46967;48.876;2.136;2023-06-19T00:00:50;100936.22;;;48.38;14.86
61086;BME280;46967;48.876;2.136;2023-06-19T00:03:15;100936.94;;;48.49;15.15
61086;BME280;46967;48.876;2.136;2023-06-19T00:05:41;100932.59;;;48.24;15.24
61086;BME280;46967;48.876;2.136;2023-06-19T00:08:06;100926.25;;;48.61;14.84
61086;BME280;46967;48.876;2.136;2023-06-19T00:10:32;100941.19;;;48.17;14.96
61086;BME280;46967;48.876;2.136;2023-06-19T00:12:57;100937.72;;;48.31;15.08
61086;BME280;46967;48.876;2.136;2023-06-19T00:15:23;100936.66;;;48.65;14.72
61086;BME280;46967;48.876;2.136;2023-06-19T00:17:48;100936.47;;;48.80;14.59
61086;BME280;46967;48.876;2.136;2023-06-19T00:20:13;100943.50;;;48.86;14.79
61086;BME280;46967;48.876;2.136;2023-06-19T00:22:40;100949.44;;;48.93;14.65
61086;BME280;46967;48.876;2.136;2023-06-19T00:25:06;100954.72;;;48.90;14.52
61086;BME280;46967;48.876;2.136;2023-06-19T00:27:31;100963.41;;;49.16;14.09
61086;BME280;46967;48.876;2.136;2023-06-19T00:29:56;100950.28;;;48.94;14.54
61086;BME280;46967;48.876;2.136;2023-06-19T00:32:28;100952.28;;;48.88;14.70
61086;BME280;46967;48.876;2.136;2023-06-19T00:34:53;100956.38;;;48.91;14.12
61086;BME280;46967;48.876;2.136;2023-06-19T00:37:19;100955.34;;;48.49;14.74
61086;BME280;46967;48.876;2.136;2023-06-19T00:39:44;100967.31;;;48.58;14.92
61086;BME280;46967;48.876;2.136;2023-06-19T00:42:09;100973.13;;;48.56;14.92
61086;BME280;46967;48.876;2.136;2023-06-19T00:44:35;100975.16;;;48.27;14.70
61086;BME280;46967;48.876;2.136;2023-06-19T00:47:02;100979.38;;;48.62;14.90
61086;BME280;46967;48.876;2.136;2023-06-19T00:49:28;100988.16;;;48.83;14.59
61086;BME280;46967;48.876;2.136;2023-06-19T00:51:54;100987.66;;;48.95;14.65
61086;BME280;46967;48.876;2.136;2023-06-19T00:54:20;100986.25;;;48.97;14.46
61086;BME280;46967;48.876;2.136;2023-06-19T00:56:46;100990.47;;;49.09;14.36
61086;BME280;46967;48.876;2.136;2023-06-19T00:59:15;100989.53;;;49.00;14.29
61086;BME280;46967;48.876;2.136;2023-06-19T01:01:42;100992.34;;;49.13;14.24
61086;BME280;46967;48.876;2.136;2023-06-19T01:04:08;100998.53;;;49.05;14.45
61086;BME280;46967;48.876;2.136;2023-06-19T01:06:50;101006.34;;;48.98;14.60
61086;BME280;46967;48.876;2.136;2023-06-19T01:09:18;101003.59;;;48.41;14.60
61086;BME280;46967;48.876;2.136;2023-06-19T01:11:55;101001.97;;;47.92;14.92
61086;BME280;46967;48.876;2.136;2023-06-19T01:14:25;101001.22;;;47.86;15.07
61086;BME280;46967;48.876;2.136;2023-06-19T01:16:51;101010.31;;;47.57;15.52
61086;BME280;46967;48.876;2.136;2023-06-19T01:19:21;101014.69;;;47.58;15.13
61086;BME280;46967;48.876;2.136;2023-06-19T01:21:46;101008.53;;;47.42;15.64
61086;BME280;46967;48.876;2.136;2023-06-19T01:24:13;101009.75;;;47.55;15.68
61086;BME280;46967;48.876;2.136;2023-06-19T01:26:38;101008.38;;;47.58;15.18
61086;BME280;46967;48.876;2.136;2023-06-19T01:29:04;101003.53;;;47.49;15.08
61086;BME280;46967;48.876;2.136;2023-06-19T01:31:31;101002.00;;;47.33;15.49
61086;BME280;46967;48.876;2.136;2023-06-19T01:33:58;100999.25;;;47.38;15.11
61086;BME280;46967;48.876;2.136;2023-06-19T01:36:26;101007.59;;;47.52;15.42
61086;BME280;46967;48.876;2.136;2023-06-19T01:38:55;100994.19;;;47.16;15.24
61086;BME280;46967;48.876;2.136;2023-06-19T01:41:23;100987.66;;;47.07;15.62
61086;BME280;46967;48.876;2.136;2023-06-19T01:43:51;101005.44;;;47.49;15.50
61086;BME280;46967;48.876;2.136;2023-06-19T01:46:16;101002.41;;;47.80;14.97
61086;BME280;46967;48.876;2.136;2023-06-19T01:48:42;101008.84;;;47.65;14.93
61086;BME280;46967;48.876;2.136;2023-06-19T01:51:07;101008.09;;;47.59;15.39
61086;BME280;46967;48.876;2.136;2023-06-19T01:53:33;101010.22;;;47.67;15.33
61086;BME280;46967;48.876;2.136;2023-06-19T01:55:59;101000.94;;;47.87;14.87
61086;BME280;46967;48.876;2.136;2023-06-19T01:58:25;101007.19;;;47.40;15.50
61086;BME280;46967;48.876;2.136;2023-06-19T02:00:50;101009.59;;;47.46;15.19
61086;BME280;46967;48.876;2.136;2023-06-19T02:03:15;101010.44;;;47.71;15.14
61086;BME280;46967;48.876;2.136;2023-06-19T02:05:41;101017.19;;;47.84;15.20
61086;BME280;46967;48.876;2.136;2023-06-19T02:08:06;101026.06;;;47.12;15.32
61086;BME280;46967;48.876;2.136;2023-06-19T02:10:32;101021.69;;;47.45;14.99
61086;BME280;46967;48.876;2.136;2023-06-19T02:12:57;101025.16;;;47.56;15.11
61086;BME280;46967;48.876;2.136;2023-06-19T02:15:23;101027.38;;;47.54;14.99
61086;BME280;46967;48.876;2.136;2023-06-19T02:17:48;101024.63;;;47.20;15.42
61086;BME280;46967;48.876;2.136;2023-06-19T02:20:14;101018.31;;;46.79;15.58
61086;BME280;46967;48.876;2.136;2023-06-19T02:22:40;101013.03;;;46.38;16.01
61086;BME280;46967;48.876;2.136;2023-06-19T02:25:06;101010.78;;;46.45;15.75
61086;BME280;46967;48.876;2.136;2023-06-19T02:27:32;101008.16;;;46.09;16.30
61086;BME280;46967;48.876;2.136;2023-06-19T02:29:57;101006.72;;;46.38;16.15
61086;BME280;46967;48.876;2.136;2023-06-19T02:32:23;101003.44;;;46.36;15.96
61086;BME280;46967;48.876;2.136;2023-06-19T02:34:48;101007.66;;;46.18;16.41
61086;BME280;46967;48.876;2.136;2023-06-19T02:37:14;101004.81;;;46.38;15.89
61086;BME280;46967;48.876;2.136;2023-06-19T02:39:39;101022.00;;;46.49;15.88
61086;BME280;46967;48.876;2.136;2023-06-19T02:42:05;101017.97;;;46.41;15.94
61086;BME280;46967;48.876;2.136;2023-06-19T02:44:31;101023.66;;;46.60;16.10
61086;BME280;46967;48.876;2.136;2023-06-19T02:46:56;101025.50;;;46.70;15.81
61086;BME280;46967;48.876;2.136;2023-06-19T02:49:22;101024.81;;;46.89;15.56
61086;BME280;46967;48.876;2.136;2023-06-19T02:51:47;101035.91;;;47.18;15.57
61086;BME280;46967;48.876;2.136;2023-06-19T02:54:12;101038.22;;;47.40;15.30
61086;BME280;46967;48.876;2.136;2023-06-19T02:56:38;101042.53;;;46.67;15.76
61086;BME280;46967;48.876;2.136;2023-06-19T02:59:03;101038.28;;;46.85;15.43
61086;BME280;46967;48.876;2.136;2023-06-19T03:01:28;101037.09;;;47.07;15.37
61086;BME280;46967;48.876;2.136;2023-06-19T03:03:54;101034.59;;;47.10;15.51
61086;BME280;46967;48.876;2.136;2023-06-19T03:06:19;101031.66;;;46.96;15.59
61086;BME280;46967;48.876;2.136;2023-06-19T03:08:46;101022.81;;;47.05;15.70
61086;BME280;46967;48.876;2.136;2023-06-19T03:11:11;101026.81;;;47.23;14.97
61086;BME280;46967;48.876;2.136;2023-06-19T03:13:52;101028.00;;;47.11;15.71
61086;BME280;46967;48.876;2.136;2023-06-19T03:16:18;101022.16;;;47.18;15.54
61086;BME280;46967;48.876;2.136;2023-06-19T03:18:44;101024.47;;;47.06;15.63
61086;BME280;46967;48.876;2.136;2023-06-19T03:21:14;101025.50;;;47.15;15.42
61086;BME280;46967;48.876;2.136;2023-06-19T03:23:39;101026.63;;;47.09;15.18
61086;BME280;46967;48.876;2.136;2023-06-19T03:26:08;101040.16;;;47.40;15.20
61086;BME280;46967;48.876;2.136;2023-06-19T03:28:34;101032.00;;;47.24;15.16
61086;BME280;46967;48.876;2.136;2023-06-19T03:30:59;101031.75;;;47.55;14.87
61086;BME280;46967;48.876;2.136;2023-06-19T03:33:25;101034.53;;;47.79;15.13
61086;BME280;46967;48.876;2.136;2023-06-19T03:35:51;101043.09;;;48.26;14.38
61086;BME280;46967;48.876;2.136;2023-06-19T03:38:16;101033.16;;;48.30;14.37
61086;BME280;46967;48.876;2.136;2023-06-19T03:40:42;101040.50;;;48.35;14.30
61086;BME280;46967;48.876;2.136;2023-06-19T03:43:07;101041.91;;;48.13;14.65
61086;BME280;46967;48.876;2.136;2023-06-19T03:45:32;101039.81;;;48.00;14.82
61086;BME280;46967;48.876;2.136;2023-06-19T03:47:57;101043.69;;;47.75;14.45
61086;BME280;46967;48.876;2.136;2023-06-19T03:50:24;101037.78;;;47.23;15.12
61086;BME280;46967;48.876;2.136;2023-06-19T03:52:49;101038.50;;;47.39;14.74
61086;BME280;46967;48.876;2.136;2023-06-19T03:55:14;101042.78;;;47.50;14.88
61086;BME280;46967;48.876;2.136;2023-06-19T03:57:40;101044.47;;;47.11;15.26
61086;BME280;46967;48.876;2.136;2023-06-19T04:00:05;101046.94;;;47.08;15.25
61086;BME280;46967;48.876;2.136;2023-06-19T04:02:33;101050.75;;;46.67;15.70
61086;BME280;46967;48.876;2.136;2023-06-19T04:04:58;101045.81;;;47.14;15.17
61086;BME280;46967;48.876;2.136;2023-06-19T04:07:24;101044.91;;;47.58;14.71
61086;BME280;46967;48.876;2.136;2023-06-19T04:09:49;101055.25;;;47.71;14.81
61086;BME280;46967;48.876;2.136;2023-06-19T04:12:15;101051.94;;;47.40;14.61
61086;BME280;46967;48.876;2.136;2023-06-19T04:14:40;101052.84;;;47.25;15.11
61086;BME280;46967;48.876;2.136;2023-06-19T04:17:05;101055.72;;;47.49;14.94
61086;BME280;46967;48.876;2.136;2023-06-19T04:19:30;101055.44;;;47.46;14.83
61086;BME280;46967;48.876;2.136;2023-06-19T04:21:56;101051.13;;;47.40;15.20
61086;BME280;46967;48.876;2.136;2023-06-19T04:24:21;101055.03;;;47.33;15.55
61086;BME280;46967;48.876;2.136;2023-06-19T04:26:46;101061.09;;;47.30;15.36
61086;BME280;46967;48.876;2.136;2023-06-19T04:29:12;101061.84;;;47.36;15.20
61086;BME280;46967;48.876;2.136;2023-06-19T04:31:44;101069.88;;;47.91;14.95
61086;BME280;46967;48.876;2.136;2023-06-19T04:34:12;101077.41;;;48.10;14.70
61086;BME280;46967;48.876;2.136;2023-06-19T04:36:39;101084.94;;;48.47;14.55
61086;BME280;46967;48.876;2.136;2023-06-19T04:39:04;101086.22;;;48.55;14.23
61086;BME280;46967;48.876;2.136;2023-06-19T04:41:30;101084.59;;;48.73;14.42
61086;BME280;46967;48.876;2.136;2023-06-19T04:43:55;101082.03;;;48.82;14.02
61086;BME280;46967;48.876;2.136;2023-06-19T04:46:21;101077.88;;;49.03;14.23
61086;BME280;46967;48.876;2.136;2023-06-19T04:48:46;101087.25;;;48.83;14.19
61086;BME280;46967;48.876;2.136;2023-06-19T04:51:18;101085.97;;;48.94;14.15
61086;BME280;46967;48.876;2.136;2023-06-19T04:53:47;101092.84;;;49.16;14.32
61086;BME280;46967;48.876;2.136;2023-06-19T04:56:14;101094.91;;;48.86;14.18
61086;BME280;46967;48.876;2.136;2023-06-19T04:58:40;101098.19;;;48.21;14.91
61086;BME280;46967;48.876;2.136;2023-06-19T05:01:14;101096.59;;;48.15;14.47
61086;BME280;46967;48.876;2.136;2023-06-19T05:03:40;101099.88;;;48.17;14.64
61086;BME280;46967;48.876;2.136;2023-06-19T05:06:05;101102.44;;;47.79;14.77
61086;BME280;46967;48.876;2.136;2023-06-19T05:08:31;101094.47;;;47.77;14.63
61086;BME280;46967;48.876;2.136;2023-06-19T05:10:56;101100.47;;;47.84;14.70
61086;BME280;46967;48.876;2.136;2023-06-19T05:13:23;101105.47;;;47.77;14.82
61086;BME280;46967;48.876;2.136;2023-06-19T05:15:48;101103.22;;;47.84;15.16
61086;BME280;46967;48.876;2.136;2023-06-19T05:18:15;101091.41;;;48.13;14.76
61086;BME280;46967;48.876;2.136;2023-06-19T05:20:40;101088.41;;;48.34;14.58
61086;BME280;46967;48.876;2.136;2023-06-19T05:23:05;101086.09;;;48.46;14.85
61086;BME280;46967;48.876;2.136;2023-06-19T05:25:31;101089.22;;;48.10;14.91
61086;BME280;46967;48.876;2.136;2023-06-19T05:27:56;101079.88;;;48.11;14.85
61086;BME280;46967;48.876;2.136;2023-06-19T05:30:21;101082.75;;;47.96;15.11
61086;BME280;46967;48.876;2.136;2023-06-19T05:32:47;101076.97;;;47.73;14.73
61086;BME280;46967;48.876;2.136;2023-06-19T05:35:12;101087.06;;;47.78;15.04
61086;BME280;46967;48.876;2.136;2023-06-19T05:37:37;101091.34;;;47.89;14.93
61086;BME280;46967;48.876;2.136;2023-06-19T05:40:05;101085.41;;;48.06;14.96
61086;BME280;46967;48.876;2.136;2023-06-19T05:42:31;101084.19;;;48.17;14.52
61086;BME280;46967;48.876;2.136;2023-06-19T05:44:56;101081.69;;;48.64;14.68
61086;BME280;46967;48.876;2.136;2023-06-19T05:47:22;101070.22;;;48.57;14.67
61086;BME280;46967;48.876;2.136;2023-06-19T05:49:50;101071.56;;;48.40;14.47
61086;BME280;46967;48.876;2.136;2023-06-19T05:52:16;101070.63;;;48.26;14.75
61086;BME280;46967;48.876;2.136;2023-06-19T05:54:42;101067.09;;;48.20;15.03
61086;BME280;46967;48.876;2.136;2023-06-19T05:57:07;101066.72;;;48.08;14.48
61086;BME280;46967;48.876;2.136;2023-06-19T05:59:32;101057.63;;;48.32;14.36
61086;BME280;46967;48.876;2.136;2023-06-19T06:01:58;101056.19;;;48.34;14.44
61086;BME280;46967;48.876;2.136;2023-06-19T06:04:23;101056.41;;;48.38;14.29
61086;BME280;46967;48.876;2.136;2023-06-19T06:06:48;101068.22;;;48.43;14.46
61086;BME280;46967;48.876;2.136;2023-06-19T06:09:14;101066.22;;;48.25;14.88
61086;BME280;46967;48.876;2.136;2023-06-19T06:11:40;101065.31;;;48.54;14.79
61086;BME280;46967;48.876;2.136;2023-06-19T06:14:05;101072.94;;;48.62;14.74
61086;BME280;46967;48.876;2.136;2023-06-19T06:16:31;101081.69;;;48.64;14.20
61086;BME280;46967;48.876;2.136;2023-06-19T06:18:56;101077.13;;;48.78;14.57
61086;BME280;46967;48.876;2.136;2023-06-19T06:21:21;101081.94;;;48.87;14.04
61086;BME280;46967;48.876;2.136;2023-06-19T06:23:47;101088.44;;;49.15;14.18
61086;BME280;46967;48.876;2.136;2023-06-19T06:26:13;101089.56;;;49.47;14.31
61086;BME280;46967;48.876;2.136;2023-06-19T06:28:39;101083.22;;;49.13;14.26
61086;BME280;46967;48.876;2.136;2023-06-19T06:31:04;101081.53;;;48.99;13.93
61086;BME280;46967;48.876;2.136;2023-06-19T06:33:29;101080.25;;;49.29;14.46
61086;BME280;46967;48.876;2.136;2023-06-19T06:35:55;101091.47;;;49.65;14.28
61086;BME280;46967;48.876;2.136;2023-06-19T06:38:20;101100.44;;;49.57;14.23
61086;BME280;46967;48.876;2.136;2023-06-19T06:40:46;101098.31;;;49.54;14.01
61086;BME280;46967;48.876;2.136;2023-06-19T06:43:11;101113.72;;;49.36;13.99
61086;BME280;46967;48.876;2.136;2023-06-19T06:45:37;101107.28;;;49.60;14.02
61086;BME280;46967;48.876;2.136;2023-06-19T06:48:07;101119.34;;;49.64;14.12
61086;BME280;46967;48.876;2.136;2023-06-19T06:50:33;101117.28;;;49.70;14.17
61086;BME280;46967;48.876;2.136;2023-06-19T06:52:58;101117.59;;;50.01;14.13
61086;BME280;46967;48.876;2.136;2023-06-19T06:55:24;101116.66;;;49.92;13.61
61086;BME280;46967;48.876;2.136;2023-06-19T06:57:49;101120.88;;;49.70;14.12
61086;BME280;46967;48.876;2.136;2023-06-19T07:00:15;101128.63;;;49.68;13.79
61086;BME280;46967;48.876;2.136;2023-06-19T07:02:40;101125.75;;;49.92;14.01
61086;BME280;46967;48.876;2.136;2023-06-19T07:05:07;101125.50;;;49.75;13.57
61086;BME280;46967;48.876;2.136;2023-06-19T07:07:32;101138.75;;;49.73;13.49
61086;BME280;46967;48.876;2.136;2023-06-19T07:09:57;101148.34;;;49.75;13.36
61086;BME280;46967;48.876;2.136;2023-06-19T07:12:23;101137.44;;;49.70;13.94
61086;BME280;46967;48.876;2.136;2023-06-19T07:14:48;101134.63;;;49.56;14.17
61086;BME280;46967;48.876;2.136;2023-06-19T07:17:13;101125.91;;;49.82;13.91
61086;BME280;46967;48.876;2.136;2023-06-19T07:19:39;101127.72;;;49.73;13.92
61086;BME280;46967;48.876;2.136;2023-06-19T07:22:04;101126.66;;;49.88;14.20
61086;BME280;46967;48.876;2.136;2023-06-19T07:24:30;101123.81;;;50.07;13.97
61086;BME280;46967;48.876;2.136;2023-06-19T07:26:55;101128.81;;;50.04;14.10
61086;BME280;46967;48.876;2.136;2023-06-19T07:29:22;101127.13;;;49.76;14.33
61086;BME280;46967;48.876;2.136;2023-06-19T07:31:47;101114.41;;;50.08;14.01
61086;BME280;46967;48.876;2.136;2023-06-19T07:34:13;101113.84;;;50.25;13.93
61086;BME280;46967;48.876;2.136;2023-06-19T07:36:39;101116.91;;;50.37;13.79
61086;BME280;46967;48.876;2.136;2023-06-19T07:39:04;101123.59;;;50.72;13.88
61086;BME280;46967;48.876;2.136;2023-06-19T07:41:30;101123.03;;;50.48;14.01
61086;BME280;46967;48.876;2.136;2023-06-19T07:43:55;101118.50;;;50.66;13.53
61086;BME280;46967;48.876;2.136;2023-06-19T07:46:20;101117.75;;;50.88;13.54
61086;BME280;46967;48.876;2.136;2023-06-19T07:48:46;101115.78;;;50.88;13.41
61086;BME280;46967;48.876;2.136;2023-06-19T07:51:11;101130.13;;;50.90;13.45
61086;BME280;46967;48.876;2.136;2023-06-19T07:53:37;101131.53;;;51.02;13.04
61086;BME280;46967;48.876;2.136;2023-06-19T07:56:04;101123.31;;;51.10;13.35
61086;BME280;46967;48.876;2.136;2023-06-19T07:58:29;101122.69;;;51.14;13.25
61086;BME280;46967;48.876;2.136;2023-06-19T08:00:55;101129.28;;;51.04;13.07
61086;BME280;46967;48.876;2.136;2023-06-19T08:03:20;101122.88;;;50.81;13.16
61086;BME280;46967;48.876;2.136;2023-06-19T08:05:47;101128.63;;;50.70;13.35
61086;BME280;46967;48.876;2.136;2023-06-19T08:08:12;101121.31;;;50.38;13.39
61086;BME280;46967;48.876;2.136;2023-06-19T08:10:38;101128.94;;;50.69;13.28
61086;BME280;46967;48.876;2.136;2023-06-19T08:13:03;101128.28;;;50.86;12.87
61086;BME280;46967;48.876;2.136;2023-06-19T08:15:29;101134.03;;;50.75;13.05
61086;BME280;46967;48.876;2.136;2023-06-19T08:17:54;101120.84;;;50.17;13.03
61086;BME280;46967;48.876;2.136;2023-06-19T08:20:20;101125.97;;;50.51;13.73
61086;BME280;46967;48.876;2.136;2023-06-19T08:22:46;101122.31;;;50.70;13.16
61086;BME280;46967;48.876;2.136;2023-06-19T08:25:11;101124.94;;;50.47;12.87
61086;BME280;46967;48.876;2.136;2023-06-19T08:27:37;101126.78;;;50.52;13.42
61086;BME280;46967;48.876;2.136;2023-06-19T08:30:02;101124.81;;;50.80;13.16
61086;BME280;46967;48.876;2.136;2023-06-19T08:32:28;101130.47;;;50.75;12.91
61086;BME280;46967;48.876;2.136;2023-06-19T08:34:53;101124.66;;;50.63;13.03
61086;BME280;46967;48.876;2.136;2023-06-19T08:37:19;101124.97;;;50.33;13.34
61086;BME280;46967;48.876;2.136;2023-06-19T08:39:44;101125.38;;;50.68;12.96
61086;BME280;46967;48.876;2.136;2023-06-19T08:42:10;101118.44;;;50.43;12.99
61086;BME280;46967;48.876;2.136;2023-06-19T08:44:36;101127.88;;;50.79;12.52
61086;BME280;46967;48.876;2.136;2023-06-19T08:47:02;101123.91;;;50.71;12.45
61086;BME280;46967;48.876;2.136;2023-06-19T08:49:34;101131.06;;;50.86;12.74
61086;BME280;46967;48.876;2.136;2023-06-19T08:52:01;101128.78;;;51.24;12.68
61086;BME280;46967;48.876;2.136;2023-06-19T08:54:27;101128.38;;;51.31;12.33
61086;BME280;46967;48.876;2.136;2023-06-19T08:56:52;101115.50;;;51.49;12.04
61086;BME280;46967;48.876;2.136;2023-06-19T08:59:19;101120.59;;;51.33;11.58
61086;BME280;46967;48.876;2.136;2023-06-19T09:01:52;101119.25;;;51.08;12.40
61086;BME280;46967;48.876;2.136;2023-06-19T09:04:20;101114.03;;;51.06;12.39
61086;BME280;46967;48.876;2.136;2023-06-19T09:06:56;101114.75;;;50.98;11.65
61086;BME280;46967;48.876;2.136;2023-06-19T09:09:23;101107.09;;;50.59;11.80
61086;BME280;46967;48.876;2.136;2023-06-19T09:12:06;101104.53;;;50.48;12.39
61086;BME280;46967;48.876;2.136;2023-06-19T09:14:33;101103.34;;;50.91;11.87
61086;BME280;46967;48.876;2.136;2023-06-19T09:16:59;101109.13;;;51.03;12.42
61086;BME280;46967;48.876;2.136;2023-06-19T09:19:24;101116.03;;;50.92;12.48
61086;BME280;46967;48.876;2.136;2023-06-19T09:21:49;101109.72;;;51.37;12.14
61086;BME280;46967;48.876;2.136;2023-06-19T09:24:15;101106.69;;;51.47;11.61
61086;BME280;46967;48.876;2.136;2023-06-19T09:26:40;101104.97;;;51.83;11.89
61086;BME280;46967;48.876;2.136;2023-06-19T09:29:10;101101.50;;;51.77;11.73
61086;BME280;46967;48.876;2.136;2023-06-19T09:31:36;101102.81;;;51.48;11.41
61086;BME280;46967;48.876;2.136;2023-06-19T09:34:03;101103.66;;;51.57;11.42
61086;BME280;46967;48.876;2.136;2023-06-19T09:36:28;101105.41;;;51.76;11.63
61086;BME280;46967;48.876;2.136;2023-06-19T09:38:56;101099.91;;;52.16;11.46
61086;BME280;46967;48.876;2.136;2023-06-19T09:41:23;101099.34;;;51.96;12.05
61086;BME280;46967;48.876;2.136;2023-06-19T09:43:49;101096.38;;;51.93;11.75
61086;BME280;46967;48.876;2.136;2023-06-19T09:46:19;101103.78;;;52.15;11.67
61086;BME280;46967;48.876;2.136;2023-06-19T09:48:47;101092.22;;;52.04;11.76
61086;BME280;46967;48.876;2.136;2023-06-19T09:51:20;101090.78;;;52.15;11.33
61086;BME280;46967;48.876;2.136;2023-06-19T09:53:47;101090.41;;;51.99;11.62
61086;BME280;46967;48.876;2.136;2023-06-19T09:56:14;101085.50;;;51.34;11.29
61086;BME280;46967;48.876;2.136;2023-06-19T09:58:40;101092.88;;;51.47;11.87
61086;BME280;46967;48.876;2.136;2023-06-19T10:01:07;101094.66;;;51.74;11.46
61086;BME280;46967;48.876;2.136;2023-06-19T10:03:34;101091.78;;;51.57;11.27
61086;BME280;46967;48.876;2.136;2023-06-19T10:06:01;101091.16;;;51.60;11.38
61086;BME280;46967;48.876;2.136;2023-06-19T10:08:31;101082.81;;;51.51;11.50
61086;BME280;46967;48.876;2.136;2023-06-19T10:10:57;101089.31;;;51.46;11.79
61086;BME280;46967;48.876;2.136;2023-06-19T10:13:31;101081.66;;;51.21;12.16
61086;BME280;46967;48.876;2.136;2023-06-19T10:15:57;101080.19;;;51.69;11.98
61086;BME280;46967;48.876;2.136;2023-06-19T10:18:22;101081.69;;;51.84;11.79
61086;BME280;46967;48.876;2.136;2023-06-19T10:20:50;101092.25;;;52.22;11.50
61086;BME280;46967;48.876;2.136;2023-06-19T10:23:23;101086.47;;;52.32;11.36
61086;BME280;46967;48.876;2.136;2023-06-19T10:25:59;101085.09;;;52.21;11.21
61086;BME280;46967;48.876;2.136;2023-06-19T10:28:29;101084.22;;;52.86;11.07
61086;BME280;46967;48.876;2.136;2023-06-19T10:30:57;101082.94;;;52.84;11.09
61086;BME280;46967;48.876;2.136;2023-06-19T10:33:24;101076.41;;;53.32;11.41
61086;BME280;46967;48.876;2.136;2023-06-19T10:35:50;101074.09;;;53.34;10.24
61086;BME280;46967;48.876;2.136;2023-06-19T10:38:16;101064.50;;;53.23;9.97
61086;BME280;46967;48.876;2.136;2023-06-19T10:40:42;101071.34;;;53.17;10.77
61086;BME280;46967;48.876;2.136;2023-06-19T10:43:08;101072.13;;;53.44;10.18
61086;BME280;46967;48.876;2.136;2023-06-19T10:45:33;101053.31;;;53.67;9.66
61086;BME280;46967;48.876;2.136;2023-06-19T10:48:02;101056.16;;;54.18;9.88
61086;BME280;46967;48.876;2.136;2023-06-19T10:50:37;101055.00;;;53.89;9.70
61086;BME280;46967;48.876;2.136;2023-06-19T10:53:04;101060.50;;;53.59;9.93
61086;BME280;46967;48.876;2.136;2023-06-19T10:55:29;101066.31;;;53.10;10.19
61086;BME280;46967;48.876;2.136;2023-06-19T10:57:55;101065.81;;;53.17;10.21
61086;BME280;46967;48.876;2.136;2023-06-19T11:00:28;101063.19;;;53.38;10.02
61086;BME280;46967;48.876;2.136;2023-06-19T11:02:55;101051.50;;;53.71;10.13
61086;BME280;46967;48.876;2.136;2023-06-19T11:05:22;101052.03;;;53.94;9.81
61086;BME280;46967;48.876;2.136;2023-06-19T11:08:18;101051.50;;;53.71;10.11
61086;BME280;46967;48.876;2.136;2023-06-19T11:10:44;101040.84;;;53.82;10.26
61086;BME280;46967;48.876;2.136;2023-06-19T11:13:14;101047.38;;;53.30;10.14
61086;BME280;46967;48.876;2.136;2023-06-19T11:15:39;101047.06;;;53.31;9.84
61086;BME280;46967;48.876;2.136;2023-06-19T11:18:05;101045.09;;;53.23;9.88
61086;BME280;46967;48.876;2.136;2023-06-19T11:20:30;101047.09;;;53.05;9.65
61086;BME280;46967;48.876;2.136;2023-06-19T11:22:57;101039.56;;;53.32;9.42
61086;BME280;46967;48.876;2.136;2023-06-19T11:25:23;101050.03;;;52.91;9.20
61086;BME280;46967;48.876;2.136;2023-06-19T11:27:49;101049.38;;;52.85;9.50
61086;BME280;46967;48.876;2.136;2023-06-19T11:30:18;101038.31;;;53.03;9.67
61086;BME280;46967;48.876;2.136;2023-06-19T11:32:45;101046.13;;;52.57;9.99
61086;BME280;46967;48.876;2.136;2023-06-19T11:35:12;101037.00;;;52.74;9.93
61086;BME280;46967;48.876;2.136;2023-06-19T11:37:42;101038.31;;;52.68;10.02
61086;BME280;46967;48.876;2.136;2023-06-19T11:40:08;101039.44;;;52.84;10.06
61086;BME280;46967;48.876;2.136;2023-06-19T11:42:47;101038.13;;;52.99;9.80
61086;BME280;46967;48.876;2.136;2023-06-19T11:45:13;101040.09;;;52.99;9.99
61086;BME280;46967;48.876;2.136;2023-06-19T11:47:38;101041.88;;;52.95;9.97
61086;BME280;46967;48.876;2.136;2023-06-19T11:50:06;101031.94;;;53.02;10.18
61086;BME280;46967;48.876;2.136;2023-06-19T11:52:32;101041.06;;;52.94;10.03
61086;BME280;46967;48.876;2.136;2023-06-19T11:54:58;101035.16;;;52.26;10.21
61086;BME280;46967;48.876;2.136;2023-06-19T11:57:23;101033.72;;;51.88;10.23
61086;BME280;46967;48.876;2.136;2023-06-19T11:59:48;101036.38;;;51.31;10.48
61086;BME280;46967;48.876;2.136;2023-06-19T12:02:14;101031.38;;;52.13;10.34
61086;BME280;46967;48.876;2.136;2023-06-19T12:04:39;101030.59;;;52.30;9.80
61086;BME280;46967;48.876;2.136;2023-06-19T12:07:05;101026.91;;;52.61;10.29
61086;BME280;46967;48.876;2.136;2023-06-19T12:09:31;101026.63;;;51.96;10.29
61086;BME280;46967;48.876;2.136;2023-06-19T12:11:59;101019.53;;;52.30;10.61
61086;BME280;46967;48.876;2.136;2023-06-19T12:14:25;101024.84;;;52.00;10.65
61086;BME280;46967;48.876;2.136;2023-06-19T12:16:51;101022.06;;;51.06;11.11
61086;BME280;46967;48.876;2.136;2023-06-19T12:19:17;101015.16;;;51.80;10.68
61086;BME280;46967;48.876;2.136;2023-06-19T12:21:42;101022.72;;;51.97;10.45
61086;BME280;46967;48.876;2.136;2023-06-19T12:24:07;101015.59;;;52.13;10.32
61086;BME280;46967;48.876;2.136;2023-06-19T12:26:36;101022.94;;;52.18;10.52
61086;BME280;46967;48.876;2.136;2023-06-19T12:29:05;101015.72;;;51.59;10.80
61086;BME280;46967;48.876;2.136;2023-06-19T12:31:31;101017.13;;;51.88;10.99
61086;BME280;46967;48.876;2.136;2023-06-19T12:33:56;101018.09;;;51.21;11.38
61086;BME280;46967;48.876;2.136;2023-06-19T12:36:21;101012.09;;;51.81;11.17
61086;BME280;46967;48.876;2.136;2023-06-19T12:38:47;101016.91;;;51.13;11.08
61086;BME280;46967;48.876;2.136;2023-06-19T12:41:14;101013.13;;;50.86;11.17
61086;BME280;46967;48.876;2.136;2023-06-19T12:43:39;101010.56;;;51.35;11.41
61086;BME280;46967;48.876;2.136;2023-06-19T12:46:05;101007.88;;;51.21;11.15